Time;durP1;ratioP1;P1;durP2;ratioP2;P2;SDS_P1;SDS_P2;PMS_P1;PMS_P2;Temp;Humidity;BMP_temperature;BMP_pressure;BME280_temperature;BME280_humidity;BME280_pressure;Samples;Min_cycle;Max_cycle;Signal;HPM_P1;HPM_P2
2022/01/31 00:02:12;;;;;;;2.53;1.05;;;;;;;5.87;66.76;100303.94;4987852;28;20454;-59
2022/01/31 00:04:39;;;;;;;3.65;0.60;;;;;;;5.86;66.47;100302.22;4986366;28;20054;-58
2022/01/31 00:07:10;;;;;;;4.78;0.40;;;;;;;5.83;65.94;100289.28;4985013;28;20042;-56
2022/01/31 00:09:40;;;;;;;10.18;1.17;;;;;;;5.86;66.67;100299.63;4988876;28;20042;-55
2022/01/31 00:12:10;;;;;;;2.35;0.63;;;;;;;5.86;66.36;100286.78;4983950;28;20050;-57
2022/01/31 00:14:42;;;;;;;1.65;0.25;;;;;;;5.88;66.97;100289.38;4985522;28;20116;-56
2022/01/31 00:17:11;;;;;;;2.70;0.43;;;;;;;5.86;66.66;100289.34;4984501;28;20196;-58
2022/01/31 00:19:40;;;;;;;4.57;0.85;;;;;;;5.85;66.89;100279.91;4986919;28;20050;-55
2022/01/31 00:22:09;;;;;;;1.83;0.52;;;;;;;5.89;66.56;100292.00;4982186;28;20053;-56
2022/01/31 00:24:36;;;;;;;1.83;0.80;;;;;;;5.87;66.69;100291.09;4988654;28;20530;-56
2022/01/31 00:27:04;;;;;;;3.75;0.95;;;;;;;5.84;67.66;100306.44;4988286;28;20462;-59
2022/01/31 00:29:31;;;;;;;1.27;0.28;;;;;;;5.88;66.63;100287.66;5009317;28;20046;-56
2022/01/31 00:31:57;;;;;;;9.15;0.28;;;;;;;5.82;68.08;100289.25;5003528;28;20123;-59
2022/01/31 00:34:24;;;;;;;2.72;0.60;;;;;;;5.79;68.07;100303.78;5007848;28;20166;-52
2022/01/31 00:36:51;;;;;;;1.58;0.85;;;;;;;5.81;68.20;100308.94;5005082;28;20046;-55
2022/01/31 00:39:18;;;;;;;1.65;0.70;;;;;;;5.81;68.47;100311.50;5000347;28;20514;-57
2022/01/31 00:41:45;;;;;;;9.98;0.65;;;;;;;5.77;68.83;100284.88;5002983;28;20058;-57
2022/01/31 00:44:18;;;;;;;3.20;0.52;;;;;;;5.72;67.98;100294.22;5006863;28;20054;-58
2022/01/31 00:46:55;;;;;;;4.00;0.32;;;;;;;5.69;67.80;100300.97;5005798;28;20125;-58
2022/01/31 00:49:38;;;;;;;;;;;;;;;5.63;67.05;100297.44;5005792;28;20465;-55
2022/01/31 00:52:05;;;;;;;1.40;0.63;;;;;;;5.67;68.18;100313.78;5006816;28;19929;-59
2022/01/31 00:54:32;;;;;;;1.67;0.43;;;;;;;5.72;67.57;100301.03;5005044;28;20124;-54
2022/01/31 00:56:58;;;;;;;4.13;1.23;;;;;;;5.70;67.27;100297.56;5004958;28;20685;-56
2022/01/31 00:59:25;;;;;;;3.20;0.75;;;;;;;5.73;66.43;100307.91;5006321;28;20712;-56
2022/01/31 01:01:53;;;;;;;1.08;1.02;;;;;;;5.70;68.54;100308.72;5008413;28;20056;-55
2022/01/31 01:04:20;;;;;;;5.07;0.55;;;;;;;5.65;68.75;100308.63;5009075;28;20081;-59
2022/01/31 01:06:46;;;;;;;3.15;0.80;;;;;;;5.58;68.81;100323.88;5007356;28;20592;-59
2022/01/31 01:09:13;;;;;;;1.90;0.32;;;;;;;5.44;70.32;100321.00;5007271;28;20124;-58
2022/01/31 01:11:40;;;;;;;3.75;0.65;;;;;;;5.29;71.55;100304.41;5010133;28;20099;-57
2022/01/31 01:14:07;;;;;;;1.38;0.43;;;;;;;5.20;70.81;100265.69;5007653;28;20050;-58
2022/01/31 01:16:33;;;;;;;1.52;0.65;;;;;;;5.18;70.59;100293.00;5009107;28;20050;-59
2022/01/31 01:19:03;;;;;;;3.40;1.25;;;;;;;5.13;69.63;100278.38;5008193;28;20445;-59
2022/01/31 01:21:29;;;;;;;1.80;0.40;;;;;;;5.08;69.61;100277.41;5009976;28;20100;-57
2022/01/31 01:23:56;;;;;;;0.85;0.30;;;;;;;5.10;69.46;100290.28;5005850;28;20060;-57
2022/01/31 01:26:23;;;;;;;3.55;0.82;;;;;;;5.07;69.47;100279.94;5010513;28;20041;-58
2022/01/31 01:28:49;;;;;;;2.38;0.63;;;;;;;5.07;69.81;100303.88;5009628;28;20042;-58
2022/01/31 01:31:16;;;;;;;5.43;1.08;;;;;;;5.01;69.68;100296.06;5008659;28;20628;-55
2022/01/31 01:33:43;;;;;;;13.43;0.98;;;;;;;5.02;69.71;100287.50;5008528;28;20038;-58
2022/01/31 01:36:10;;;;;;;6.72;1.00;;;;;;;5.04;69.31;100287.56;5007572;28;20101;-57
2022/01/31 01:38:36;;;;;;;5.72;0.85;;;;;;;5.04;69.20;100306.41;5010106;28;20246;-57
2022/01/31 01:41:04;;;;;;;4.10;0.75;;;;;;;5.01;69.55;100301.19;5004724;28;20189;-58
2022/01/31 01:43:31;;;;;;;5.82;0.68;;;;;;;4.99;69.56;100297.69;5010180;28;20050;-58
2022/01/31 01:45:59;;;;;;;1.25;0.20;;;;;;;4.89;69.87;100312.88;5003826;28;20064;-57
2022/01/31 01:48:26;;;;;;;4.25;0.30;;;;;;;4.86;70.51;100296.53;5005206;28;20816;-56
2022/01/31 01:50:54;;;;;;;2.55;0.60;;;;;;;4.85;70.16;100299.94;5009234;28;20046;-56
2022/01/31 01:53:21;;;;;;;0.95;0.35;;;;;;;4.89;69.68;100292.34;5008666;28;20042;-56
2022/01/31 01:55:51;;;;;;;2.97;0.65;;;;;;;4.92;69.37;100290.69;5008497;28;20038;-58
2022/01/31 01:58:19;;;;;;;6.57;0.65;;;;;;;4.93;68.96;100297.56;5004618;28;20586;-55
2022/01/31 02:01:03;;;;;;;5.60;0.65;;;;;;;4.89;69.46;100292.34;5009111;28;20053;-57
2022/01/31 02:03:39;;;;;;;1.58;0.75;;;;;;;4.83;69.04;100304.19;5004503;28;20049;-55
2022/01/31 02:06:07;;;;;;;2.47;0.38;;;;;;;4.76;69.52;100326.22;5005576;28;20049;-58
2022/01/31 02:08:43;;;;;;;5.03;0.68;;;;;;;4.77;68.91;100317.72;5006729;28;20049;-57
2022/01/31 02:11:11;;;;;;;9.15;0.85;;;;;;;4.77;69.10;100317.72;5012129;28;20085;-58
2022/01/31 02:13:39;;;;;;;5.97;0.65;;;;;;;4.81;68.92;100304.13;5007367;28;20548;-57
2022/01/31 02:16:07;;;;;;;1.23;0.80;;;;;;;4.87;68.97;100314.53;5006454;28;20103;-58
2022/01/31 02:18:36;;;;;;;7.93;1.25;;;;;;;4.93;68.61;100312.97;5011491;28;20052;-56
2022/01/31 02:21:03;;;;;;;4.38;1.05;;;;;;;4.90;69.38;100308.63;5000610;28;20104;-57
2022/01/31 02:23:30;;;;;;;6.85;0.73;;;;;;;4.88;69.89;100295.75;5007756;28;20116;-56
2022/01/31 02:26:01;;;;;;;2.40;0.60;;;;;;;4.84;69.99;100301.66;5005952;28;20053;-56
2022/01/31 02:28:30;;;;;;;3.25;0.98;;;;;;;4.81;70.19;100306.69;5006672;28;20052;-56
2022/01/31 02:30:58;;;;;;;6.95;1.55;;;;;;;4.86;70.37;100307.69;5003259;28;20668;-59
2022/01/31 02:33:25;;;;;;;3.05;0.63;;;;;;;4.79;70.72;100318.63;5003846;28;20042;-56
2022/01/31 02:35:54;;;;;;;10.98;0.95;;;;;;;4.83;71.45;100307.59;5006591;28;20125;-58
2022/01/31 02:38:21;;;;;;;2.50;0.63;;;;;;;4.78;71.88;100282.66;5006133;28;20049;-53
2022/01/31 02:40:50;;;;;;;7.68;1.08;;;;;;;4.80;71.40;100289.53;5006181;28;20052;-58
2022/01/31 02:43:22;;;;;;;2.38;0.65;;;;;;;4.81;71.90;100314.41;5005232;28;20104;-58
2022/01/31 02:45:49;;;;;;;13.88;4.57;;;;;;;4.84;71.63;100324.75;5006643;28;20116;-56
2022/01/31 02:48:19;;;;;;;6.25;0.98;;;;;;;4.83;70.97;100302.47;5003963;28;20717;-58
2022/01/31 02:50:47;;;;;;;2.20;1.02;;;;;;;4.88;70.25;100311.16;5003114;28;20309;-58
2022/01/31 02:53:22;;;;;;;4.93;0.57;;;;;;;4.87;70.45;100304.28;5009868;28;20057;-59
2022/01/31 02:55:50;;;;;;;4.60;0.93;;;;;;;4.85;70.61;100295.69;5008669;28;20061;-57
2022/01/31 02:58:17;;;;;;;11.02;0.95;;;;;;;4.85;69.78;100275.16;5005070;28;20046;-57
2022/01/31 03:00:44;;;;;;;0.85;0.65;;;;;;;4.88;69.79;100284.63;5003300;28;20116;-55
2022/01/31 03:03:11;;;;;;;3.75;1.30;;;;;;;4.84;69.68;100277.66;5003818;28;20053;-57
2022/01/31 03:05:38;;;;;;;4.70;1.05;;;;;;;4.86;70.17;100297.41;5004808;28;20068;-55
2022/01/31 03:08:06;;;;;;;7.35;0.82;;;;;;;4.87;69.69;100298.28;5008046;28;20108;-58
2022/01/31 03:10:32;;;;;;;5.55;0.40;;;;;;;4.95;68.57;100295.88;5004209;28;20081;-55
2022/01/31 03:13:00;;;;;;;6.00;0.77;;;;;;;4.95;69.57;100285.63;5004365;28;20482;-58
2022/01/31 03:15:27;;;;;;;6.63;1.38;;;;;;;4.94;69.51;100274.50;5005642;28;20450;-59
2022/01/31 03:17:54;;;;;;;6.80;1.77;;;;;;;4.98;69.51;100276.31;5002980;28;20706;-57
2022/01/31 03:20:23;;;;;;;4.78;1.60;;;;;;;4.99;69.13;100274.59;5006369;28;20478;-58
2022/01/31 03:22:51;;;;;;;5.00;1.05;;;;;;;5.00;69.42;100284.91;5008947;28;20054;-58
2022/01/31 03:25:18;;;;;;;1.48;0.73;;;;;;;4.99;69.31;100298.56;5005801;28;20062;-59
2022/01/31 03:27:46;;;;;;;4.10;1.15;;;;;;;4.95;72.07;100309.59;5003996;28;20449;-57
2022/01/31 03:30:16;;;;;;;3.95;0.38;;;;;;;4.73;72.85;100288.53;5003477;28;20050;-59
2022/01/31 03:32:43;;;;;;;5.20;1.10;;;;;;;4.70;73.08;100336.34;5004377;28;20046;-60
2022/01/31 03:35:10;;;;;;;3.03;0.85;;;;;;;4.60;73.22;100318.13;5005654;28;20111;-55
2022/01/31 03:37:37;;;;;;;6.68;0.95;;;;;;;4.52;72.27;100322.19;5005066;28;20046;-54
2022/01/31 03:40:06;;;;;;;3.97;1.40;;;;;;;4.41;72.54;100314.22;5004672;28;20449;-55
2022/01/31 03:42:32;;;;;;;2.47;0.63;;;;;;;4.39;72.02;100317.59;5005983;28;20042;-56
2022/01/31 03:44:59;;;;;;;4.25;0.75;;;;;;;4.35;72.01;100309.81;5005857;28;20138;-56
2022/01/31 03:47:26;;;;;;;2.05;0.73;;;;;;;4.32;71.71;100319.97;5005748;28;20046;-57
2022/01/31 03:49:53;;;;;;;2.13;0.50;;;;;;;4.34;71.30;100326.03;5005743;28;20033;-55
2022/01/31 03:52:19;;;;;;;5.35;0.90;;;;;;;4.40;71.46;100344.97;5007160;28;20054;-56
2022/01/31 03:54:46;;;;;;;4.63;0.50;;;;;;;4.36;70.96;100362.81;5006271;28;20042;-54
2022/01/31 03:57:13;;;;;;;7.28;1.15;;;;;;;4.39;71.04;100372.28;5006226;28;20108;-55
2022/01/31 03:59:40;;;;;;;8.25;2.42;;;;;;;4.40;70.93;100361.22;5009751;28;20471;-56
2022/01/31 04:02:07;;;;;;;4.25;0.60;;;;;;;4.34;71.35;100374.75;5002662;28;20045;-56
2022/01/31 04:04:35;;;;;;;5.22;0.65;;;;;;;4.30;70.99;100352.41;5006995;28;20062;-55
2022/01/31 04:07:02;;;;;;;2.97;0.95;;;;;;;4.29;71.35;100370.31;5007205;28;20050;-58
2022/01/31 04:09:29;;;;;;;6.70;1.05;;;;;;;4.23;71.68;100376.16;5004857;28;20053;-57
2022/01/31 04:11:55;;;;;;;4.43;0.90;;;;;;;4.17;71.55;100361.44;5004025;28;20104;-55
2022/01/31 04:14:26;;;;;;;5.22;0.55;;;;;;;4.18;71.10;100365.75;5007660;28;20053;-53
2022/01/31 04:16:55;;;;;;;4.22;0.63;;;;;;;4.17;70.78;100356.31;5006784;28;20061;-56
2022/01/31 04:19:22;;;;;;;3.45;1.00;;;;;;;4.16;70.82;100363.97;5008121;28;20623;-57
2022/01/31 04:21:49;;;;;;;2.97;1.00;;;;;;;4.16;70.56;100369.97;5007135;28;20066;-57
2022/01/31 04:24:19;;;;;;;5.70;0.93;;;;;;;4.18;70.89;100377.69;5005522;28;20054;-55
2022/01/31 04:26:55;;;;;;;3.20;1.08;;;;;;;4.10;70.74;100352.72;5006516;28;20058;-55
2022/01/31 04:29:22;;;;;;;3.10;0.77;;;;;;;4.10;71.27;100329.66;5005637;28;20046;-56
2022/01/31 04:31:51;;;;;;;4.55;1.02;;;;;;;4.13;70.93;100312.59;5002599;28;20073;-56
2022/01/31 04:34:18;;;;;;;10.02;1.60;;;;;;;4.13;70.72;100317.72;5009507;28;20430;-56
2022/01/31 04:36:45;;;;;;;2.58;0.40;;;;;;;4.11;71.15;100305.75;5009494;28;20046;-56
2022/01/31 04:39:16;;;;;;;3.20;0.52;;;;;;;4.13;70.67;100302.34;5009423;28;20041;-58
2022/01/31 04:41:45;;;;;;;8.13;0.98;;;;;;;4.11;70.02;100310.88;5007965;28;20050;-56
2022/01/31 04:44:12;;;;;;;4.68;2.17;;;;;;;4.07;69.97;100309.06;5008286;28;20399;-57
2022/01/31 04:46:40;;;;;;;2.47;1.55;;;;;;;4.08;69.42;100309.91;5006233;28;20056;-56
2022/01/31 04:49:07;;;;;;;9.55;0.95;;;;;;;4.05;69.52;100305.56;5008607;28;20046;-54
2022/01/31 04:51:34;;;;;;;3.03;0.45;;;;;;;4.04;69.40;100302.94;5007893;28;20811;-53
2022/01/31 04:54:01;;;;;;;5.55;0.80;;;;;;;4.02;69.20;100299.50;5009529;28;20099;-55
2022/01/31 04:56:28;;;;;;;6.75;1.08;;;;;;;4.03;69.09;100316.59;5005554;28;20054;-56
2022/01/31 04:58:54;;;;;;;8.82;1.08;;;;;;;4.00;68.86;100332.75;5006064;28;20181;-56
2022/01/31 05:01:21;;;;;;;4.78;0.95;;;;;;;4.00;68.53;100327.63;5005533;28;20869;-55
2022/01/31 05:03:48;;;;;;;6.05;0.73;;;;;;;4.01;68.96;100355.00;5006668;28;20133;-57
2022/01/31 05:06:19;;;;;;;9.10;1.55;;;;;;;4.05;68.56;100361.09;5006937;28;20050;-54
2022/01/31 05:08:46;;;;;;;3.67;1.42;;;;;;;4.03;68.57;100362.75;5007518;28;20054;-55
2022/01/31 05:11:13;;;;;;;8.52;0.95;;;;;;;4.02;69.13;100366.13;5010813;28;20050;-53
2022/01/31 05:13:46;;;;;;;5.05;0.73;;;;;;;3.98;68.80;100375.41;5005615;28;20552;-55
2022/01/31 05:16:12;;;;;;;7.03;0.60;;;;;;;4.00;68.47;100373.78;5007278;28;20041;-56
2022/01/31 05:18:39;;;;;;;5.63;0.95;;;;;;;4.02;67.59;100382.38;5009330;28;20430;-56
2022/01/31 05:21:08;;;;;;;5.70;1.05;;;;;;;4.03;68.34;100384.13;5007664;28;20484;-53
2022/01/31 05:23:34;;;;;;;8.55;1.48;;;;;;;4.04;67.34;100382.41;5008841;28;20069;-56
2022/01/31 05:26:01;;;;;;;8.95;1.73;;;;;;;4.04;67.16;100384.97;5006459;28;20057;-54
2022/01/31 05:28:28;;;;;;;7.45;1.25;;;;;;;4.06;67.47;100394.44;5008058;28;20671;-56
2022/01/31 05:30:54;;;;;;;8.10;2.25;;;;;;;4.05;66.85;100390.16;5006448;28;20790;-58
2022/01/31 05:33:21;;;;;;;7.40;2.20;;;;;;;4.08;67.28;100402.19;5003321;28;21085;-56
2022/01/31 05:35:48;;;;;;;13.02;1.20;;;;;;;4.06;67.30;100417.53;5005856;28;20108;-58
2022/01/31 05:38:14;;;;;;;10.23;2.38;;;;;;;4.06;67.50;100414.94;5007256;28;20415;-55
2022/01/31 05:40:41;;;;;;;8.30;1.20;;;;;;;4.07;67.87;100397.88;5010179;28;20132;-55
2022/01/31 05:43:08;;;;;;;12.32;1.40;;;;;;;4.01;67.91;100421.66;5002988;28;20046;-55
2022/01/31 05:45:34;;;;;;;2.65;0.93;;;;;;;3.95;69.13;100406.09;5007285;28;20054;-53
2022/01/31 05:48:01;;;;;;;11.15;1.48;;;;;;;3.92;69.40;100411.13;5005113;28;20552;-57
2022/01/31 05:50:27;;;;;;;7.40;1.08;;;;;;;3.85;69.79;100405.81;5008838;28;20104;-55
2022/01/31 05:52:54;;;;;;;7.47;0.95;;;;;;;3.80;70.70;100420.19;5007379;28;20049;-53
2022/01/31 05:55:21;;;;;;;4.32;1.10;;;;;;;3.83;71.01;100420.28;5007833;28;20038;-53
2022/01/31 05:57:48;;;;;;;5.55;1.27;;;;;;;3.85;71.35;100420.34;5005129;28;20077;-57
2022/01/31 06:00:20;;;;;;;6.97;0.82;;;;;;;3.83;71.11;100417.72;5004651;28;20057;-54
2022/01/31 06:02:56;;;;;;;6.35;1.60;;;;;;;3.87;71.33;100428.91;5009435;28;20125;-53
2022/01/31 06:05:23;;;;;;;6.70;1.42;;;;;;;3.86;71.55;100404.97;5007605;28;20050;-54
2022/01/31 06:07:50;;;;;;;8.57;1.05;;;;;;;3.90;70.63;100423.00;5009007;28;20189;-54
2022/01/31 06:10:17;;;;;;;3.90;1.10;;;;;;;3.92;70.62;100413.69;5008237;28;20053;-56
2022/01/31 06:12:45;;;;;;;5.47;1.02;;;;;;;3.94;70.84;100406.91;5006590;28;20123;-57
2022/01/31 06:15:14;;;;;;;6.07;1.15;;;;;;;3.95;70.17;100439.41;5010194;28;20058;-55
2022/01/31 06:17:41;;;;;;;12.07;1.67;;;;;;;4.00;69.66;100442.97;5009465;28;20054;-55
2022/01/31 06:20:08;;;;;;;5.53;0.85;;;;;;;4.01;69.83;100439.59;5004908;28;20049;-55
2022/01/31 06:22:35;;;;;;;8.07;1.15;;;;;;;4.02;70.76;100437.91;5006757;28;20049;-53
2022/01/31 06:25:02;;;;;;;11.23;0.68;;;;;;;4.06;70.24;100455.13;5007178;28;20068;-56
2022/01/31 06:27:28;;;;;;;5.22;1.08;;;;;;;4.08;69.75;100448.31;5004401;28;20115;-55
2022/01/31 06:29:55;;;;;;;4.60;1.45;;;;;;;4.10;69.64;100462.06;5010462;28;20443;-55
2022/01/31 06:32:25;;;;;;;15.07;1.98;;;;;;;4.15;69.41;100459.66;5007125;28;20072;-56
2022/01/31 06:34:53;;;;;;;8.48;1.55;;;;;;;4.18;68.98;100469.97;5004208;28;20042;-55
2022/01/31 06:37:19;;;;;;;5.10;1.00;;;;;;;4.18;69.17;100475.13;5007765;28;20049;-55
2022/01/31 06:39:47;;;;;;;7.38;0.73;;;;;;;4.23;69.61;100476.16;4999454;28;20042;-57
2022/01/31 06:42:15;;;;;;;5.13;0.88;;;;;;;4.16;70.48;100481.91;5006242;28;20046;-56
2022/01/31 06:44:44;;;;;;;9.05;1.42;;;;;;;4.07;71.65;100483.38;5005488;28;20053;-54
2022/01/31 06:47:14;;;;;;;4.70;0.65;;;;;;;3.95;71.97;100495.81;4987947;28;20050;-56
2022/01/31 06:49:40;;;;;;;7.10;1.02;;;;;;;3.86;71.82;100498.94;4986800;28;20565;-54
2022/01/31 06:52:08;;;;;;;10.10;1.42;;;;;;;3.77;71.68;100527.69;4990760;28;20961;-57
2022/01/31 06:54:35;;;;;;;21.50;1.92;;;;;;;3.73;71.28;100528.41;4985413;28;20050;-53
2022/01/31 06:57:04;;;;;;;2.70;0.77;;;;;;;3.66;71.05;100541.84;4984376;28;20054;-55
2022/01/31 06:59:31;;;;;;;5.15;0.82;;;;;;;3.58;71.14;100539.03;4988779;28;20046;-56
2022/01/31 07:02:02;;;;;;;2.60;1.02;;;;;;;3.54;71.05;100532.91;4983824;28;20081;-56
2022/01/31 07:04:28;;;;;;;6.88;0.88;;;;;;;3.49;70.38;100537.03;4985927;28;20058;-56
2022/01/31 07:06:55;;;;;;;7.03;1.27;;;;;;;3.50;69.80;100543.88;4983842;28;20120;-55
2022/01/31 07:09:22;;;;;;;6.28;0.80;;;;;;;3.46;70.09;100530.13;4981234;28;20100;-55
2022/01/31 07:11:51;;;;;;;5.13;1.67;;;;;;;3.45;69.14;100553.09;4986433;28;20045;-57
2022/01/31 07:14:33;;;;;;;11.32;0.85;;;;;;;3.44;69.94;100552.22;4987812;28;20482;-56
2022/01/31 07:17:03;;;;;;;5.60;0.57;;;;;;;3.42;69.61;100547.88;4986058;28;20050;-57
2022/01/31 07:19:33;;;;;;;6.18;0.77;;;;;;;3.43;68.57;100552.16;4985078;28;20057;-57
2022/01/31 07:22:00;;;;;;;6.07;1.13;;;;;;;3.40;69.18;100559.75;4984001;28;20137;-53
2022/01/31 07:24:47;;;;;;;6.30;1.00;;;;;;;3.34;68.86;100535.66;4983969;28;20038;-53
2022/01/31 07:27:14;;;;;;;6.45;0.70;;;;;;;3.34;69.06;100538.22;4988080;28;20053;-54
2022/01/31 07:29:40;;;;;;;9.43;0.88;;;;;;;3.32;68.70;100542.41;5006237;28;20748;-58
2022/01/31 07:32:09;;;;;;;7.80;1.20;;;;;;;3.32;68.29;100508.28;5003406;28;20045;-57
2022/01/31 07:34:37;;;;;;;5.53;1.48;;;;;;;3.30;68.29;100518.47;5002133;28;20050;-55
2022/01/31 07:37:04;;;;;;;6.75;1.10;;;;;;;3.26;68.01;100521.75;4999697;28;20050;-56
2022/01/31 07:39:32;;;;;;;2.92;0.82;;;;;;;3.30;66.90;100507.34;5000663;28;20061;-55
2022/01/31 07:41:58;;;;;;;8.68;1.35;;;;;;;3.30;67.55;100512.47;5001489;28;20469;-54
2022/01/31 07:44:25;;;;;;;4.60;1.15;;;;;;;3.33;66.61;100517.69;5000549;28;20081;-56
2022/01/31 07:46:52;;;;;;;4.47;1.20;;;;;;;3.30;66.92;100517.56;4998332;28;21307;-55
2022/01/31 07:49:21;;;;;;;3.33;1.08;;;;;;;3.32;66.47;100537.28;5000012;28;20461;-54
2022/01/31 07:51:48;;;;;;;2.55;0.73;;;;;;;3.37;65.91;100544.28;5001696;28;20811;-58
2022/01/31 07:54:15;;;;;;;2.58;0.75;;;;;;;3.34;66.58;100538.22;4998495;28;20080;-56
2022/01/31 07:56:42;;;;;;;3.95;0.77;;;;;;;3.34;65.49;100534.78;5001718;28;20046;-54
2022/01/31 07:59:09;;;;;;;4.68;1.67;;;;;;;3.36;64.71;100532.28;5000780;28;20674;-58
2022/01/31 08:01:36;;;;;;;8.63;0.98;;;;;;;3.39;64.66;100517.91;4998581;28;20121;-54
2022/01/31 08:04:04;;;;;;;5.15;0.95;;;;;;;3.45;63.77;100522.38;4999996;28;20721;-55
2022/01/31 08:06:33;;;;;;;5.25;0.82;;;;;;;3.48;64.88;100537.84;4997780;28;20049;-56
2022/01/31 08:09:00;;;;;;;3.10;1.02;;;;;;;3.51;64.37;100567.81;4995820;28;20050;-55
2022/01/31 08:11:32;;;;;;;8.63;2.60;;;;;;;3.57;64.30;100547.50;5000875;28;20102;-55
2022/01/31 08:14:02;;;;;;;4.63;0.35;;;;;;;3.68;63.38;100565.84;5000858;28;20148;-57
2022/01/31 08:16:29;;;;;;;4.97;0.93;;;;;;;3.75;63.72;100598.50;5011922;28;20547;-57
2022/01/31 08:18:55;;;;;;;3.20;1.02;;;;;;;3.83;62.62;100604.78;5000150;28;20128;-55
2022/01/31 08:21:23;;;;;;;7.00;1.80;;;;;;;3.85;63.16;100600.56;5000214;28;20073;-54
2022/01/31 08:23:51;;;;;;;4.13;0.65;;;;;;;3.94;62.15;100614.50;5000893;28;20172;-53
2022/01/31 08:26:19;;;;;;;4.15;0.85;;;;;;;4.09;62.54;100645.78;4998648;28;20061;-54
2022/01/31 08:28:56;;;;;;;3.70;0.85;;;;;;;4.26;62.17;100653.19;4998739;28;20046;-55
2022/01/31 08:31:28;;;;;;;4.47;1.95;;;;;;;4.55;60.88;100660.94;4997839;28;20038;-55
2022/01/31 08:34:07;;;;;;;3.70;0.60;;;;;;;4.79;60.12;100677.91;4998029;28;20140;-56
2022/01/31 08:36:34;;;;;;;2.92;0.75;;;;;;;4.92;59.39;100686.88;4996050;28;20861;-55
2022/01/31 08:39:08;;;;;;;1.70;0.98;;;;;;;5.03;58.84;100687.19;4998767;28;20057;-55
2022/01/31 08:41:37;;;;;;;1.52;0.47;;;;;;;5.27;58.32;100688.78;5004533;28;20058;-55
2022/01/31 08:44:04;;;;;;;5.68;1.48;;;;;;;5.58;57.94;100697.38;5001684;28;20472;-55
2022/01/31 08:46:32;;;;;;;3.58;0.43;;;;;;;5.84;56.68;100694.63;5005743;28;20532;-55
2022/01/31 08:48:59;;;;;;;2.03;1.00;;;;;;;6.09;54.22;100691.88;5002214;28;20049;-55
2022/01/31 08:51:26;;;;;;;3.28;0.73;;;;;;;6.25;53.87;100703.44;5003311;28;20069;-55
2022/01/31 08:53:53;;;;;;;2.97;0.80;;;;;;;6.47;54.08;100706.53;5003363;28;20054;-57
2022/01/31 08:56:20;;;;;;;2.92;0.55;;;;;;;6.61;53.51;100712.91;5007709;28;20050;-53
2022/01/31 08:58:49;;;;;;;3.33;0.93;;;;;;;6.86;52.63;100723.78;4999508;28;20046;-53
2022/01/31 09:01:21;;;;;;;11.27;0.95;;;;;;;7.05;52.73;100726.78;5004910;28;20050;-58
2022/01/31 09:04:01;;;;;;;11.02;0.82;;;;;;;7.46;51.32;100711.38;5003085;28;20050;-55
2022/01/31 09:06:30;;;;;;;5.63;0.63;;;;;;;7.76;50.24;100724.84;5004415;28;20049;-57
2022/01/31 09:08:58;;;;;;;2.95;0.50;;;;;;;7.87;50.40;100732.78;5003014;28;20045;-57
2022/01/31 09:11:26;;;;;;;1.75;0.77;;;;;;;7.97;48.74;100742.44;5001049;28;20101;-54
2022/01/31 09:13:52;;;;;;;2.50;0.65;;;;;;;8.16;49.09;100760.84;5001425;28;20092;-57
2022/01/31 09:16:20;;;;;;;3.70;0.63;;;;;;;8.40;48.37;100744.06;5003733;28;20058;-59
2022/01/31 09:18:46;;;;;;;2.72;1.00;;;;;;;8.55;46.87;100768.47;5005234;28;20130;-55
2022/01/31 09:21:13;;;;;;;4.38;0.65;;;;;;;8.87;46.84;100762.94;5008146;28;20068;-59
2022/01/31 09:23:40;;;;;;;2.15;0.52;;;;;;;9.13;46.21;100784.00;5005050;28;20066;-56
2022/01/31 09:26:07;;;;;;;1.83;0.82;;;;;;;9.28;45.30;100771.31;5009275;28;20475;-56
2022/01/31 09:28:34;;;;;;;5.25;1.33;;;;;;;9.44;44.54;100773.25;5003758;28;20095;-54
2022/01/31 09:31:00;;;;;;;3.45;0.65;;;;;;;9.60;43.99;100768.28;5005802;28;20069;-55
2022/01/31 09:33:28;;;;;;;2.65;0.52;;;;;;;9.76;42.90;100765.03;5006233;28;20042;-56
2022/01/31 09:35:55;;;;;;;2.17;0.50;;;;;;;9.93;42.60;100777.28;5005731;28;20108;-58
2022/01/31 09:38:24;;;;;;;6.78;1.00;;;;;;;10.26;43.17;100799.25;5008246;28;20049;-56
2022/01/31 09:40:53;;;;;;;3.78;1.67;;;;;;;10.54;42.36;100802.13;5007538;28;20597;-56
2022/01/31 09:43:40;;;;;;;2.28;1.25;;;;;;;10.77;40.91;100804.06;5007185;28;20563;-59
2022/01/31 09:46:45;;;;;;;3.70;1.25;;;;;;;10.92;40.54;100812.84;5018306;28;20046;-59
2022/01/31 09:48:56;;;;;;;4.47;1.95;;;;;;;11.17;39.65;100813.00;5012523;28;21097;-54
2022/01/31 09:51:25;;;;;;;3.17;0.55;;;;;;;11.38;39.81;100832.19;5005221;28;20200;-57
2022/01/31 09:53:56;;;;;;;4.00;0.63;;;;;;;11.49;38.97;100825.34;5004138;28;20145;-53
2022/01/31 09:56:27;;;;;;;1.85;0.35;;;;;;;11.66;39.51;100842.72;5000680;28;20045;-51
2022/01/31 09:58:55;;;;;;;4.80;0.60;;;;;;;11.95;39.39;100844.59;5002358;28;20128;-55
2022/01/31 10:01:29;;;;;;;4.35;0.88;;;;;;;12.05;38.83;100851.56;5003581;28;20116;-56
2022/01/31 10:03:59;;;;;;;9.85;1.23;;;;;;;12.45;39.00;100868.16;5016758;28;20108;-57
2022/01/31 10:06:31;;;;;;;7.53;0.75;;;;;;;12.29;36.97;100865.53;5005082;28;20050;-57
2022/01/31 10:09:13;;;;;;;4.53;0.50;;;;;;;12.39;37.76;100887.19;5007926;28;20050;-55
2022/01/31 10:11:49;;;;;;;3.80;0.80;;;;;;;12.77;38.63;100892.50;5004794;28;20069;-58
2022/01/31 10:17:30;;;;;;;4.93;2.00;;;;;;;12.46;36.91;100882.88;5000042;28;20446;-58
2022/01/31 10:20:27;;;;;;;6.85;0.47;;;;;;;12.45;36.71;100896.75;5017830;28;20050;-56
2022/01/31 10:22:55;;;;;;;4.65;0.90;;;;;;;12.36;36.04;100907.13;4986858;28;20050;-53
2022/01/31 10:25:24;;;;;;;1.77;1.17;;;;;;;12.32;37.88;100912.31;4999184;28;20050;-56
2022/01/31 10:28:13;;;;;;;3.67;1.05;;;;;;;12.52;38.05;100919.28;5008492;28;20054;-52
2022/01/31 10:30:41;;;;;;;5.78;0.75;;;;;;;12.54;36.53;100920.19;5001992;28;20673;-56
2022/01/31 10:33:10;;;;;;;2.85;0.75;;;;;;;12.67;36.46;100912.41;5003342;28;20053;-55
2022/01/31 10:35:39;;;;;;;2.80;0.70;;;;;;;12.51;35.99;100922.75;5007311;28;20045;-54
2022/01/31 10:38:11;;;;;;;6.28;0.80;;;;;;;12.70;36.21;100928.03;5003340;28;20074;-57
2022/01/31 10:52:07;;;;;;;3.60;0.60;;;;;;;10.93;36.02;100902.69;5003860;28;20057;-59
2022/01/31 10:54:39;;;;;;;1.90;0.35;;;;;;;10.49;37.27;100910.03;5004244;28;20501;-57
2022/01/31 10:57:20;;;;;;;1.30;0.30;;;;;;;10.24;37.75;100917.44;5004146;28;20426;-59
2022/01/31 10:59:48;;;;;;;5.05;0.77;;;;;;;9.67;37.75;100914.09;5003501;28;20058;-57
2022/01/31 11:02:20;;;;;;;3.05;1.70;;;;;;;9.35;37.88;100933.41;5001973;28;20450;-57
2022/01/31 11:04:49;;;;;;;1.85;0.40;;;;;;;9.19;39.29;100958.16;5006964;28;20049;-55
2022/01/31 11:07:19;;;;;;;0.82;0.38;;;;;;;8.95;39.63;100954.28;5004475;28;20050;-56
2022/01/31 11:09:49;;;;;;;3.35;0.40;;;;;;;9.03;39.45;100972.50;5008409;28;20041;-55
2022/01/31 11:12:16;;;;;;;;;;;;;;;8.80;39.84;100967.75;5008445;28;20060;-53
2022/01/31 11:14:46;;;;;;;2.65;0.50;;;;;;;8.40;39.58;100960.91;5003133;28;19925;-57
2022/01/31 11:17:14;;;;;;;1.70;0.60;;;;;;;8.25;39.45;100965.75;5003830;28;20061;-58
2022/01/31 11:19:47;;;;;;;3.22;0.82;;;;;;;8.07;40.97;100967.97;5006583;28;20049;-55
2022/01/31 11:22:18;;;;;;;1.85;0.28;;;;;;;7.91;40.22;100987.38;5002552;28;20046;-60
2022/01/31 11:25:08;;;;;;;0.68;0.38;;;;;;;7.82;41.83;100971.69;5004042;28;20041;-58
2022/01/31 11:27:37;;;;;;;1.90;0.35;;;;;;;7.71;41.33;100964.56;5004304;28;20065;-54
2022/01/31 11:30:06;;;;;;;2.03;0.73;;;;;;;7.59;41.36;100972.00;5005591;28;20076;-58
2022/01/31 11:32:33;;;;;;;0.70;0.70;;;;;;;7.50;42.62;100979.53;5004991;28;20046;-57
2022/01/31 11:34:59;;;;;;;3.47;0.40;;;;;;;7.55;43.34;100988.22;5005179;28;20053;-57
2022/01/31 11:37:26;;;;;;;2.78;2.08;;;;;;;7.41;42.57;100988.78;5002652;28;20425;-57
2022/01/31 11:39:56;;;;;;;2.88;0.52;;;;;;;7.38;43.15;100993.84;5005804;28;20560;-57
2022/01/31 11:42:23;;;;;;;1.85;0.30;;;;;;;7.31;43.47;100999.66;5001218;28;20049;-59
2022/01/31 11:45:13;;;;;;;1.45;0.50;;;;;;;7.20;44.06;101007.13;5001193;28;20058;-57
2022/01/31 11:47:41;;;;;;;0.50;0.45;;;;;;;7.17;42.79;101007.88;5017246;28;20061;-54
2022/01/31 11:50:15;;;;;;;2.20;0.45;;;;;;;7.11;44.05;100999.13;4984327;28;20058;-55
2022/01/31 11:52:54;;;;;;;1.35;0.60;;;;;;;7.08;45.08;101010.22;5000783;28;20050;-56
2022/01/31 11:55:33;;;;;;;4.70;0.65;;;;;;;7.05;43.64;101007.56;5007365;28;20097;-56